Elizabethtown, NC (28337)

6:23 AM EDT on March 27, 2015 (GMT -0400)
Elizabethtown | | Change Station
CLOSE
Current Station
Airport
Location: Elizabethtown,
Elevation: 131 ft
Nearby Weather Stations

Elev 131 ft 34.60 °N, 78.58 °W | Updated 8 minutes ago

Overcast
Overcast
63 °F
Feels Like 63 °F
N
5
Wind Variable Wind from South

Today
High -- | Low -- °F
--% Chance of Precip.
Yesterday
High -- | Low -- °F
Precip. -- in
7:08 AM 7:31 PM
Waxing Crescent, 51% visible
Pressure 29.66 in
Visibility 10.0 miles
Clouds Scattered Clouds 5000 ft
Mostly Cloudy 5500 ft
Overcast 12000 ft
Dew Point 60 °F
Humidity 90%
Rainfall 0.00 in
Snow Depth Not available.
UV 0 out of 12
Pollen 7.50 out of 12
Air Quality Not available.
Flu Activity Not available.
METAR KEYF 271015Z AUTO 18004KT 10SM SCT050 BKN055 OVC120 17/16 A2966 RMK AO2 T01710155

More Conditions Fewer Conditions

Pressure 29.66 in
Visibility 10.0 miles
Clouds Scattered Clouds 5000 ft
Mostly Cloudy 5500 ft
Overcast 12000 ft
Dew Point 60 °F
Humidity 90%
Rainfall 0.00 in
Snow Depth Not available.
UV 0 out of 12
Pollen 7.50 out of 12
Air Quality Not available.
Flu Activity Not available.
METAR KEYF 271015Z AUTO 18004KT 10SM SCT050 BKN055 OVC120 17/16 A2966 RMK AO2 T01710155

More Conditions Fewer Conditions

10-Day Weather Forecast

Almanac

Astronomy

Mar. 27, 2015 Rise Set
Actual Time
Civil Twilight
Nautical Twilight
Astronomical Twilight
Moon
Length of Visible Light
Length of Day
Tomorrow will be .
, % of the Moon is Illuminated

Today's Extremes

State Highs State Lows

Community

WunderPhotos

Upload Photos

1,808,706 photos uploaded!

WunderBlogs® & News

Nearby

Air Quality

  Air Quality AQ Index Pollutant
Not available.

Snow Depth

Station Depth Elevation

Earthquake Activity

City Distance Mag. Time & Date
Minimum magnitude displayed is 2.5.

Coastal Water Temperatures

Place Temperature

Stations

Nearby Weather Stations

Station Location Temp. Windchill Dew Point Humidity Wind Precip. Elev Updated Type